Time;durP1;ratioP1;P1;durP2;ratioP2;P2;SDS_P1;SDS_P2;PMS_P1;PMS_P2;Temp;Humidity;BMP_temperature;BMP_pressure;BME280_temperature;BME280_humidity;BME280_pressure;Samples;Min_cycle;Max_cycle;Signal;HPM_P1;HPM_P2
2023/01/22 00:00:37;;;;;;;;;;;;;;;-4.71;41.99;99671.38;6223344;28;19925;-70
2023/01/22 00:03:38;;;;;;;;;;;;;;;-4.84;41.84;99667.41;6223008;28;20007;-69
2023/01/22 00:06:39;;;;;;;;;;;;;;;-5.08;42.24;99678.44;6223311;28;20421;-69
2023/01/22 00:09:45;;;;;;;;;;;;;;;-5.24;42.69;99681.16;6223278;28;19929;-69
2023/01/22 00:12:48;;;;;;;;;;;;;;;-5.25;42.76;99680.28;6222955;28;19929;-69
2023/01/22 00:15:49;;;;;;;;;;;;;;;-5.26;42.47;99677.66;6223087;28;19925;-68
2023/01/22 00:18:58;;;;;;;;;;;;;;;-5.11;42.23;99686.00;6222784;28;19925;-69
2023/01/22 00:21:59;;;;;;;;;;;;;;;-5.27;41.99;99681.03;6222946;28;19984;-68
2023/01/22 00:25:04;;;;;;;;;;;;;;;-5.28;42.11;99682.72;6222816;28;19925;-69
2023/01/22 00:28:07;;;;;;;;;;;;;;;-5.20;42.03;99683.06;6222599;28;19925;-69
2023/01/22 00:31:08;;;;;;;;;;;;;;;-5.33;41.96;99680.78;6222632;28;20315;-69
2023/01/22 00:34:13;;;;;;;;;;;;;;;-5.30;42.15;99670.63;6222592;28;20318;-69
2023/01/22 00:37:17;;;;;;;;;;;;;;;-5.21;41.28;99665.88;6222116;28;19925;-69
2023/01/22 00:40:18;;;;;;;;;;;;;;;-5.17;41.48;99662.66;6222395;28;19925;-69
2023/01/22 00:43:19;;;;;;;;;;;;;;;-5.23;41.24;99659.84;6222208;28;19928;-69
2023/01/22 00:46:24;;;;;;;;;;;;;;;-5.40;41.20;99664.25;6220975;28;19965;-69
2023/01/22 00:49:25;;;;;;;;;;;;;;;-5.31;41.02;99663.75;6221740;28;20394;-69
2023/01/22 00:52:29;;;;;;;;;;;;;;;-5.45;41.12;99656.34;6222070;28;19925;-69
2023/01/22 00:55:32;;;;;;;;;;;;;;;-5.34;41.19;99654.25;6221908;28;19925;-69
2023/01/22 00:58:35;;;;;;;;;;;;;;;-5.50;41.33;99647.56;6221364;28;19973;-69
2023/01/22 01:01:39;;;;;;;;;;;;;;;-5.50;41.34;99647.56;6221858;28;19929;-69
2023/01/22 01:04:40;;;;;;;;;;;;;;;-5.12;41.05;99650.91;6221887;28;19972;-70
2023/01/22 01:07:47;;;;;;;;;;;;;;;-5.20;40.88;99652.25;6221983;28;20407;-69
2023/01/22 01:10:54;;;;;;;;;;;;;;;-5.09;41.35;99645.88;6220860;28;19925;-69
2023/01/22 01:13:55;;;;;;;;;;;;;;;-5.21;40.71;99655.63;6221997;28;19926;-69
2023/01/22 01:17:00;;;;;;;;;;;;;;;-5.30;41.36;99653.53;6221555;28;19925;-69
2023/01/22 01:20:01;;;;;;;;;;;;;;;-5.16;40.92;99649.00;6221022;28;19932;-69
2023/01/22 01:23:07;;;;;;;;;;;;;;;-4.88;40.90;99652.72;6221344;28;19972;-69
2023/01/22 01:26:14;;;;;;;;;;;;;;;-4.94;40.48;99639.63;6221497;28;19968;-69
2023/01/22 01:29:18;;;;;;;;;;;;;;;-4.67;40.69;99640.75;6221342;28;19925;-70
2023/01/22 01:32:19;;;;;;;;;;;;;;;-4.76;40.55;99638.66;6203074;28;19926;-69
2023/01/22 01:35:20;;;;;;;;;;;;;;;-4.98;40.99;99641.19;6220542;28;20303;-70
2023/01/22 01:38:27;;;;;;;;;;;;;;;-4.94;41.43;99634.50;6221305;28;19973;-69
2023/01/22 01:41:32;;;;;;;;;;;;;;;-5.07;41.82;99622.81;6221226;28;19932;-69
2023/01/22 01:44:35;;;;;;;;;;;;;;;-5.25;41.89;99622.94;6221120;28;19933;-69
2023/01/22 01:47:36;;;;;;;;;;;;;;;-5.47;42.10;99621.16;6220883;28;19940;-69
2023/01/22 01:50:42;;;;;;;;;;;;;;;-5.57;42.54;99619.91;6220396;28;19925;-68
2023/01/22 01:53:44;;;;;;;;;;;;;;;-5.51;42.57;99624.41;6220990;28;19930;-69
2023/01/22 01:56:49;;;;;;;;;;;;;;;-5.53;42.66;99611.50;6220404;28;19925;-69
2023/01/22 01:59:53;;;;;;;;;;;;;;;-5.40;42.25;99609.50;6219987;28;19925;-69
2023/01/22 02:02:56;;;;;;;;;;;;;;;-5.26;42.27;99622.06;6219792;28;19925;-69
2023/01/22 02:06:02;;;;;;;;;;;;;;;-5.13;42.09;99618.31;6220877;28;19930;-69
2023/01/22 02:09:07;;;;;;;;;;;;;;;-5.36;42.04;99606.22;6220926;28;20306;-70
2023/01/22 02:12:11;;;;;;;;;;;;;;;-5.36;42.73;99612.22;6220734;28;20310;-69
2023/01/22 02:15:14;;;;;;;;;;;;;;;-5.38;42.91;99610.41;6220616;28;19925;-69
2023/01/22 02:18:18;;;;;;;;;;;;;;;-5.42;42.82;99610.28;6220127;28;19925;-69
2023/01/22 02:21:31;;;;;;;;;;;;;;;-5.44;42.43;99609.31;6220275;28;19925;-69
2023/01/22 02:24:32;;;;;;;;;;;;;;;-5.32;42.71;99614.13;6220423;28;19932;-69
2023/01/22 02:27:33;;;;;;;;;;;;;;;-5.35;42.78;99611.44;6220025;28;20075;-69
2023/01/22 02:30:34;;;;;;;;;;;;;;;-5.47;42.41;99613.47;6220271;28;20008;-69
2023/01/22 02:33:37;;;;;;;;;;;;;;;-5.31;42.41;99612.44;6220357;28;20342;-68
2023/01/22 02:36:40;;;;;;;;;;;;;;;-5.25;42.65;99612.69;6219725;28;20051;-69
2023/01/22 02:39:44;;;;;;;;;;;;;;;-5.22;42.70;99613.69;6220475;28;20349;-69
2023/01/22 02:42:49;;;;;;;;;;;;;;;-5.19;42.39;99612.94;6220392;28;19925;-69
2023/01/22 02:45:52;;;;;;;;;;;;;;;-5.03;42.01;99609.31;6219949;28;20414;-69
2023/01/22 02:48:53;;;;;;;;;;;;;;;-4.90;42.23;99608.09;6220064;28;20407;-69
2023/01/22 02:51:56;;;;;;;;;;;;;;;-5.06;41.87;99614.31;6220260;28;19929;-68
2023/01/22 02:54:57;;;;;;;;;;;;;;;-4.86;41.89;99603.16;6219840;28;20398;-69
2023/01/22 02:58:00;;;;;;;;;;;;;;;-5.06;42.09;99604.94;6219952;28;19926;-69
2023/01/22 03:01:17;;;;;;;;;;;;;;;-4.71;41.96;99607.16;6220184;28;19925;-69
2023/01/22 03:04:18;;;;;;;;;;;;;;;-4.99;41.61;99599.22;6220085;28;19932;-69
2023/01/22 03:07:21;;;;;;;;;;;;;;;-5.15;42.11;99589.16;6220026;28;19925;-69
2023/01/22 03:10:27;;;;;;;;;;;;;;;-5.09;42.38;99598.81;6221428;28;19932;-69
2023/01/22 03:23:31;;;;;;;;;;;;;;;-4.81;42.22;99605.91;6223724;28;19925;-70
2023/01/22 03:26:35;;;;;;;;;;;;;;;-4.83;41.75;99597.28;6224179;28;19925;-69
2023/01/22 03:29:39;;;;;;;;;;;;;;;-4.89;42.18;99603.03;6223959;28;19925;-68
2023/01/22 03:32:40;;;;;;;;;;;;;;;-4.93;42.08;99610.56;6223631;28;20015;-69
2023/01/22 03:35:46;;;;;;;;;;;;;;;-4.80;42.18;99617.94;6223758;28;20323;-69
2023/01/22 03:38:50;;;;;;;;;;;;;;;-4.76;41.52;99614.66;6223410;28;19941;-69
2023/01/22 03:41:51;;;;;;;;;;;;;;;-4.71;41.98;99620.88;6223482;28;19926;-70
2023/01/22 03:44:52;;;;;;;;;;;;;;;-4.63;41.51;99622.06;6223544;28;20311;-68
2023/01/22 03:48:01;;;;;;;;;;;;;;;-4.60;41.59;99609.31;6223537;28;19929;-69
2023/01/22 03:51:09;;;;;;;;;;;;;;;-4.69;41.71;99606.41;6223595;28;20136;-69
2023/01/22 03:54:11;;;;;;;;;;;;;;;-4.58;41.51;99609.41;6222926;28;19925;-69
2023/01/22 03:57:12;;;;;;;;;;;;;;;-4.62;41.63;99608.38;6222482;28;19925;-69
2023/01/22 04:00:14;;;;;;;;;;;;;;;-4.55;41.26;99615.53;6190130;28;20231;-69
2023/01/22 04:03:18;;;;;;;;;;;;;;;-4.65;41.65;99607.38;6223496;28;19921;-69
2023/01/22 04:06:20;;;;;;;;;;;;;;;-4.71;41.81;99613.16;6222828;28;20023;-69
2023/01/22 04:09:24;;;;;;;;;;;;;;;-4.74;41.95;99607.91;6223107;28;19925;-69
2023/01/22 04:12:25;;;;;;;;;;;;;;;-4.62;41.63;99610.06;6222665;28;19928;-69
2023/01/22 04:15:26;;;;;;;;;;;;;;;-4.65;41.34;99603.13;6222609;28;20283;-70
2023/01/22 04:18:30;;;;;;;;;;;;;;;-4.57;41.36;99601.72;6222519;28;19925;-70
2023/01/22 04:21:33;;;;;;;;;;;;;;;-4.57;41.39;99594.03;6222065;28;19926;-69
2023/01/22 04:24:40;;;;;;;;;;;;;;;-4.59;41.05;99603.34;6222577;28;19926;-70
2023/01/22 04:27:55;;;;;;;;;;;;;;;-4.34;40.88;99604.31;6207439;28;20066;-70
2023/01/22 04:30:59;;;;;;;;;;;;;;;-4.42;40.78;99598.88;6222714;28;19925;-70
2023/01/22 04:34:02;;;;;;;;;;;;;;;-4.35;41.18;99597.44;6222526;28;19925;-70
2023/01/22 04:37:04;;;;;;;;;;;;;;;-4.21;40.47;99596.25;6222066;28;19944;-70
2023/01/22 04:40:14;;;;;;;;;;;;;;;-3.93;40.01;99598.16;6222246;28;19925;-70
2023/01/22 04:43:23;;;;;;;;;;;;;;;-4.04;40.30;99598.59;6222111;28;19925;-69
2023/01/22 04:46:29;;;;;;;;;;;;;;;-4.20;40.40;99603.13;6221987;28;20023;-69
2023/01/22 04:53:49;;;;;;;;;;;;;;;-4.41;41.03;99607.47;6221288;28;19931;-70
2023/01/22 04:56:51;;;;;;;;;;;;;;;-4.37;40.73;99604.19;6221514;28;19926;-69
2023/01/22 05:00:07;;;;;;;;;;;;;;;-4.26;40.70;99610.63;6221427;28;19925;-71
2023/01/22 05:03:11;;;;;;;;;;;;;;;-4.39;40.75;99600.69;6220903;28;19928;-70
2023/01/22 05:06:13;;;;;;;;;;;;;;;-4.29;40.73;99613.09;6221602;28;19964;-69
2023/01/22 05:09:14;;;;;;;;;;;;;;;-4.36;40.92;99608.50;6221943;28;19930;-69
2023/01/22 05:12:21;;;;;;;;;;;;;;;-4.41;40.87;99598.06;6221650;28;19925;-70
2023/01/22 05:15:24;;;;;;;;;;;;;;;-4.31;40.85;99599.28;6221479;28;19925;-69
2023/01/22 05:18:25;;;;;;;;;;;;;;;-4.32;40.69;99607.81;6221033;28;19960;-69
2023/01/22 05:21:26;;;;;;;;;;;;;;;-4.29;40.56;99611.38;6220040;28;19925;-69
2023/01/22 05:24:27;;;;;;;;;;;;;;;-3.96;40.26;99597.13;6220503;28;19965;-69
2023/01/22 05:27:28;;;;;;;;;;;;;;;-4.10;40.52;99601.81;6221473;28;19932;-69
2023/01/22 05:30:33;;;;;;;;;;;;;;;-4.09;40.37;99601.84;6221178;28;19940;-69
2023/01/22 05:33:38;;;;;;;;;;;;;;;-4.04;40.38;99608.88;6203233;28;20318;-69
2023/01/22 05:36:39;;;;;;;;;;;;;;;-3.89;39.87;99596.56;6220666;28;19925;-71
2023/01/22 05:39:42;;;;;;;;;;;;;;;-3.67;39.33;99600.78;6220898;28;19925;-69
2023/01/22 05:42:43;;;;;;;;;;;;;;;-3.86;39.46;99605.25;6220815;28;19937;-70
2023/01/22 05:45:49;;;;;;;;;;;;;;;-3.83;39.79;99604.50;6221101;28;19988;-70
2023/01/22 05:48:50;;;;;;;;;;;;;;;-3.74;39.73;99609.94;6221051;28;20371;-69
2023/01/22 05:51:53;;;;;;;;;;;;;;;-3.61;39.31;99601.00;6220759;28;19925;-69
2023/01/22 05:54:58;;;;;;;;;;;;;;;-3.37;38.88;99600.94;6220776;28;20024;-70
2023/01/22 05:58:00;;;;;;;;;;;;;;;-3.31;38.90;99596.03;6220792;28;19932;-70
2023/01/22 06:01:06;;;;;;;;;;;;;;;-3.14;38.53;99598.28;6220420;28;19925;-70
2023/01/22 06:04:09;;;;;;;;;;;;;;;-2.99;38.49;99598.81;6220685;28;19929;-70
2023/01/22 06:07:13;;;;;;;;;;;;;;;-2.77;38.21;99598.66;6220265;28;20321;-70
2023/01/22 06:10:14;;;;;;;;;;;;;;;-2.55;37.81;99592.50;6219929;28;20406;-69
2023/01/22 06:13:15;;;;;;;;;;;;;;;-2.41;37.48;99595.47;6220306;28;19932;-69
2023/01/22 06:16:16;;;;;;;;;;;;;;;-2.31;37.23;99594.91;6219519;28;20067;-70
2023/01/22 06:19:20;;;;;;;;;;;;;;;-2.12;36.90;99585.16;6219520;28;19926;-69
2023/01/22 06:22:21;;;;;;;;;;;;;;;-2.11;37.22;99589.47;6220801;28;19925;-70
2023/01/22 06:25:22;;;;;;;;;;;;;;;-1.89;36.67;99586.69;6219752;28;20439;-70
2023/01/22 06:28:30;;;;;;;;;;;;;;;-1.65;36.49;99581.31;6203339;28;20406;-70
2023/01/22 06:31:34;;;;;;;;;;;;;;;-1.57;36.36;99578.94;6220479;28;19925;-70
2023/01/22 06:34:38;;;;;;;;;;;;;;;-1.36;36.13;99584.69;6220166;28;19926;-70
2023/01/22 06:37:42;;;;;;;;;;;;;;;-1.10;35.81;99576.72;6220006;28;19932;-71
2023/01/22 06:40:49;;;;;;;;;;;;;;;-0.89;35.50;99583.25;6219792;28;20651;-70
2023/01/22 06:43:50;;;;;;;;;;;;;;;-0.75;34.90;99584.47;6220350;28;19931;-71
2023/01/22 06:46:51;;;;;;;;;;;;;;;-0.57;34.63;99577.13;6224412;28;19925;-71
2023/01/22 06:49:58;;;;;;;;;;;;;;;-0.41;34.51;99580.06;6224152;28;19993;-70
2023/01/22 06:53:01;;;;;;;;;;;;;;;-0.23;34.07;99580.44;6224176;28;19933;-69
2023/01/22 06:56:02;;;;;;;;;;;;;;;0.04;34.02;99585.34;6224383;28;19925;-70
2023/01/22 06:59:06;;;;;;;;;;;;;;;1.57;31.93;99576.78;6224737;28;20395;-70
2023/01/22 07:02:14;;;;;;;;;;;;;;;5.52;28.04;99554.16;6224757;28;19976;-69
2023/01/22 07:05:15;;;;;;;;;;;;;;;8.41;24.47;99584.47;6224465;28;20426;-69
2023/01/22 07:08:19;;;;;;;;;;;;;;;10.30;22.54;99577.84;6224444;28;19926;-70
2023/01/22 07:11:23;;;;;;;;;;;;;;;11.97;21.08;99583.53;6224309;28;19929;-71
2023/01/22 07:14:24;;;;;;;;;;;;;;;13.12;19.44;99590.72;6224244;28;19925;-70
2023/01/22 07:17:28;;;;;;;;;;;;;;;13.69;19.08;99579.16;6224032;28;20035;-70
2023/01/22 07:20:34;;;;;;;;;;;;;;;14.57;18.10;99576.03;6224190;28;19925;-70
2023/01/22 07:23:38;;;;;;;;;;;;;;;15.35;17.84;99580.91;6223835;28;19980;-70
2023/01/22 07:26:42;;;;;;;;;;;;;;;15.87;16.74;99568.09;6223918;28;20430;-70
2023/01/22 07:29:46;;;;;;;;;;;;;;;16.63;16.26;99568.22;6223830;28;20344;-71
2023/01/22 07:32:49;;;;;;;;;;;;;;;17.53;16.55;99575.47;6223682;28;20334;-70
2023/01/22 07:35:55;;;;;;;;;;;;;;;17.99;15.68;99578.47;6223675;28;19975;-70
2023/01/22 07:39:02;;;;;;;;;;;;;;;18.17;15.55;99582.81;6224005;28;19926;-70
2023/01/22 07:42:10;;;;;;;;;;;;;;;17.99;15.17;99579.31;6223741;28;19925;-70
2023/01/22 07:45:13;;;;;;;;;;;;;;;17.90;15.24;99575.34;6223234;28;19997;-70
2023/01/22 07:48:17;;;;;;;;;;;;;;;17.74;15.69;99575.22;6223229;28;19988;-70
2023/01/22 07:51:24;;;;;;;;;;;;;;;17.99;14.51;99562.50;6223419;28;20394;-70
2023/01/22 07:54:31;;;;;;;;;;;;;;;18.06;14.08;99575.41;6223131;28;19935;-69
2023/01/22 07:57:34;;;;;;;;;;;;;;;18.28;14.88;99568.94;6222535;28;19932;-71
2023/01/22 08:00:41;;;;;;;;;;;;;;;18.51;13.66;99571.25;6223345;28;19926;-71
2023/01/22 08:03:42;;;;;;;;;;;;;;;18.59;13.05;99557.47;6223057;28;19926;-71
2023/01/22 08:06:48;;;;;;;;;;;;;;;18.15;13.62;99552.75;6222958;28;19925;-71
2023/01/22 08:09:52;;;;;;;;;;;;;;;17.97;14.06;99548.38;6222912;28;19930;-70
2023/01/22 08:12:59;;;;;;;;;;;;;;;18.27;13.45;99544.09;6222587;28;19965;-70
2023/01/22 08:16:04;;;;;;;;;;;;;;;18.38;13.30;99548.84;6222747;28;19937;-70
2023/01/22 08:19:08;;;;;;;;;;;;;;;17.77;13.29;99539.59;6222911;28;19936;-71
2023/01/22 08:22:13;;;;;;;;;;;;;;;17.41;14.14;99540.53;6222683;28;19922;-70
2023/01/22 08:25:15;;;;;;;;;;;;;;;18.27;13.77;99541.41;6222280;28;20044;-69
2023/01/22 08:28:18;;;;;;;;;;;;;;;18.17;13.59;99537.50;6222745;28;19921;-69
2023/01/22 08:31:25;;;;;;;;;;;;;;;17.61;14.16;99541.34;6222724;28;20052;-70
2023/01/22 08:34:28;;;;;;;;;;;;;;;18.74;13.71;99530.00;6222358;28;19926;-70
2023/01/22 08:37:29;;;;;;;;;;;;;;;19.76;13.11;99537.47;6221606;28;20019;-70
2023/01/22 08:40:33;;;;;;;;;;;;;;;20.50;12.72;99542.69;6221887;28;19930;-71
2023/01/22 08:43:36;;;;;;;;;;;;;;;20.19;12.53;99533.06;6222518;28;20401;-70
2023/01/22 08:46:39;;;;;;;;;;;;;;;19.46;12.59;99527.66;6221716;28;20046;-70
2023/01/22 08:49:43;;;;;;;;;;;;;;;18.04;13.21;99525.81;6222109;28;19926;-70
2023/01/22 08:52:44;;;;;;;;;;;;;;;17.26;13.60;99525.31;6221489;28;19965;-70
2023/01/22 08:55:48;;;;;;;;;;;;;;;16.75;13.63;99524.25;6222084;28;19930;-70
2023/01/22 08:58:50;;;;;;;;;;;;;;;15.96;14.25;99520.81;6221512;28;19987;-70
2023/01/22 09:01:56;;;;;;;;;;;;;;;15.45;14.72;99523.00;6221930;28;19925;-70
2023/01/22 09:05:02;;;;;;;;;;;;;;;15.39;14.51;99512.63;6221897;28;19925;-70
2023/01/22 09:08:08;;;;;;;;;;;;;;;15.07;14.92;99511.34;6221092;28;19925;-69
2023/01/22 09:11:09;;;;;;;;;;;;;;;15.24;14.68;99508.84;6221162;28;19933;-69
2023/01/22 09:14:10;;;;;;;;;;;;;;;15.55;14.88;99516.38;6221520;28;19933;-70
2023/01/22 09:17:11;;;;;;;;;;;;;;;16.13;14.50;99510.28;6221200;28;20028;-70
2023/01/22 09:20:12;;;;;;;;;;;;;;;16.10;14.32;99500.66;6221511;28;19925;-69
2023/01/22 09:23:18;;;;;;;;;;;;;;;15.32;14.84;99500.59;6221489;28;19926;-69
2023/01/22 09:26:24;;;;;;;;;;;;;;;14.90;15.14;99496.13;6221518;28;19925;-71
2023/01/22 09:29:25;;;;;;;;;;;;;;;14.20;15.29;99497.91;6221118;28;20560;-70
2023/01/22 09:32:30;;;;;;;;;;;;;;;13.26;15.96;99500.41;6221447;28;19925;-69
2023/01/22 09:35:31;;;;;;;;;;;;;;;12.21;16.45;99504.59;6221213;28;20335;-69
2023/01/22 09:38:32;;;;;;;;;;;;;;;11.00;17.23;99490.22;6220742;28;20470;-69
2023/01/22 09:41:37;;;;;;;;;;;;;;;10.31;17.79;99489.22;6203401;28;20390;-70
2023/01/22 09:44:44;;;;;;;;;;;;;;;9.61;18.38;99486.25;6220970;28;19929;-70
2023/01/22 09:47:52;;;;;;;;;;;;;;;9.37;18.92;99491.06;6220972;28;19933;-69
2023/01/22 09:50:53;;;;;;;;;;;;;;;9.07;19.47;99494.22;6220512;28;20424;-70
2023/01/22 09:53:59;;;;;;;;;;;;;;;8.86;19.60;99479.69;6220906;28;20314;-70
2023/01/22 09:57:05;;;;;;;;;;;;;;;8.24;20.37;99479.72;6220814;28;20016;-70
2023/01/22 10:00:19;;;;;;;;;;;;;;;8.26;20.32;99488.41;6220732;28;19976;-69
2023/01/22 10:03:25;;;;;;;;;;;;;;;8.96;19.50;99482.13;6220592;28;19996;-69
2023/01/22 10:06:29;;;;;;;;;;;;;;;9.01;19.43;99478.56;6220696;28;19925;-70
2023/01/22 10:09:35;;;;;;;;;;;;;;;8.46;19.87;99483.78;6220738;28;20035;-70
2023/01/22 10:12:38;;;;;;;;;;;;;;;8.76;19.79;99478.97;6220462;28;20446;-70
2023/01/22 10:15:42;;;;;;;;;;;;;;;9.17;19.52;99474.78;6220117;28;20083;-69
2023/01/22 10:19:02;;;;;;;;;;;;;;;9.84;18.94;99477.91;6221195;28;19926;-71
2023/01/22 10:22:10;;;;;;;;;;;;;;;10.44;18.17;99474.00;6225426;28;19926;-70
2023/01/22 10:25:15;;;;;;;;;;;;;;;10.47;18.41;99468.66;6224300;28;19925;-70
2023/01/22 10:28:22;;;;;;;;;;;;;;;10.48;18.16;99473.06;6225484;28;19925;-70
2023/01/22 10:31:27;;;;;;;;;;;;;;;10.37;18.11;99481.19;6225361;28;20253;-70
2023/01/22 10:34:34;;;;;;;;;;;;;;;9.44;18.77;99487.41;6225070;28;19962;-70
2023/01/22 10:37:43;;;;;;;;;;;;;;;8.65;19.49;99476.50;6224989;28;19925;-70
2023/01/22 10:40:51;;;;;;;;;;;;;;;8.49;19.69;99475.88;6225206;28;19929;-71
2023/01/22 10:43:51;;;;;;;;;;;;;;;7.74;20.52;99468.13;6224432;28;19932;-72
2023/01/22 10:46:53;;;;;;;;;;;;;;;6.97;21.29;99468.91;6224469;28;20314;-69
2023/01/22 10:50:05;;;;;;;;;;;;;;;6.17;22.50;99469.50;6224850;28;20319;-70
2023/01/22 10:53:32;;;;;;;;;;;;;;;5.23;23.88;99461.09;6224399;28;19977;-70
2023/01/22 10:56:36;;;;;;;;;;;;;;;4.63;24.99;99468.09;6216331;28;20416;-70
2023/01/22 10:59:46;;;;;;;;;;;;;;;4.15;25.66;99470.63;6224377;28;19953;-70
2023/01/22 11:02:48;;;;;;;;;;;;;;;3.82;25.69;99460.97;6224321;28;19937;-70
2023/01/22 11:05:54;;;;;;;;;;;;;;;3.74;25.88;99452.28;6224430;28;19983;-71
2023/01/22 11:08:59;;;;;;;;;;;;;;;3.85;25.87;99450.59;6223984;28;20294;-72
2023/01/22 11:12:07;;;;;;;;;;;;;;;3.90;25.02;99448.84;6223994;28;20065;-70
2023/01/22 11:15:20;;;;;;;;;;;;;;;3.83;25.19;99447.09;6223882;28;19925;-70
2023/01/22 11:18:28;;;;;;;;;;;;;;;3.41;25.56;99453.84;6224171;28;19925;-70
2023/01/22 11:21:34;;;;;;;;;;;;;;;3.34;25.52;99445.16;6206797;28;19929;-71
2023/01/22 11:24:43;;;;;;;;;;;;;;;3.05;26.06;99460.56;6224078;28;20023;-70
2023/01/22 11:28:11;;;;;;;;;;;;;;;2.89;26.50;99448.34;6224330;28;19952;-70
2023/01/22 11:31:46;;;;;;;;;;;;;;;2.85;26.51;99446.56;6213161;28;19926;-71
2023/01/22 11:35:08;;;;;;;;;;;;;;;2.45;26.84;99449.72;6211535;28;19925;-70
2023/01/22 11:38:32;;;;;;;;;;;;;;;2.06;27.15;99455.38;6175503;28;19926;-71
2023/01/22 11:41:45;;;;;;;;;;;;;;;1.85;27.36;99447.38;6174910;28;19925;-70
2023/01/22 11:44:46;;;;;;;;;;;;;;;1.85;27.94;99442.19;6175416;28;19937;-70
2023/01/22 11:48:13;;;;;;;;;;;;;;;1.70;27.96;99438.56;6175265;28;19926;-70
2023/01/22 11:51:29;;;;;;;;;;;;;;;1.55;28.41;99438.34;6164701;28;19962;-71
2023/01/22 11:54:34;;;;;;;;;;;;;;;1.44;28.93;99439.94;6175078;28;19930;-71
2023/01/22 11:57:42;;;;;;;;;;;;;;;1.12;29.63;99445.59;6189939;28;20296;-71
2023/01/22 12:00:56;;;;;;;;;;;;;;;0.92;29.21;99434.06;6174699;28;19926;-71
2023/01/22 12:04:10;;;;;;;;;;;;;;;0.70;29.82;99440.63;6174754;28;20399;-71
2023/01/22 12:07:22;;;;;;;;;;;;;;;0.45;29.83;99448.00;6174636;28;20809;-71
2023/01/22 12:10:34;;;;;;;;;;;;;;;0.38;31.09;99440.97;6174796;28;19922;-73
2023/01/22 12:13:42;;;;;;;;;;;;;;;0.16;31.22;99445.78;6174720;28;20418;-70
2023/01/22 12:17:04;;;;;;;;;;;;;;;-0.17;31.29;99439.97;6174347;28;19926;-71
2023/01/22 12:20:05;;;;;;;;;;;;;;;-0.36;31.77;99438.75;6174318;28;19926;-71
2023/01/22 12:23:12;;;;;;;;;;;;;;;-0.27;31.27;99449.28;6173013;28;19926;-71
2023/01/22 12:26:22;;;;;;;;;;;;;;;-0.27;31.48;99442.38;6174558;28;19928;-71
2023/01/22 12:29:30;;;;;;;;;;;;;;;-0.19;31.67;99445.13;6174183;28;19926;-71
2023/01/22 12:32:32;;;;;;;;;;;;;;;-0.33;30.93;99436.22;6174100;28;20294;-71
2023/01/22 12:35:33;;;;;;;;;;;;;;;-0.28;30.84;99434.63;6179091;28;19962;-71
2023/01/22 12:38:40;;;;;;;;;;;;;;;-0.29;30.56;99425.09;6222226;28;20026;-70
2023/01/22 12:41:48;;;;;;;;;;;;;;;-0.20;31.48;99440.78;6222159;28;19925;-71
2023/01/22 12:45:10;;;;;;;;;;;;;;;-0.24;31.19;99439.00;6222205;28;19932;-70
2023/01/22 12:48:26;;;;;;;;;;;;;;;-0.14;31.45;99434.84;6221929;28;19926;-71
2023/01/22 12:51:53;;;;;;;;;;;;;;;-0.12;31.81;99436.63;6221838;28;20627;-71
2023/01/22 12:54:55;;;;;;;;;;;;;;;-0.16;31.87;99437.44;6220555;28;19926;-72
2023/01/22 12:57:58;;;;;;;;;;;;;;;-0.26;32.20;99427.72;6222077;28;19945;-71
2023/01/22 13:01:05;;;;;;;;;;;;;;;-0.25;32.27;99432.09;6220182;28;20012;-70
2023/01/22 13:04:11;;;;;;;;;;;;;;;-0.23;33.70;99440.72;6221749;28;19926;-71
2023/01/22 13:07:30;;;;;;;;;;;;;;;-0.20;34.09;99435.59;6221380;28;20084;-71
2023/01/22 13:10:35;;;;;;;;;;;;;;;-0.37;34.12;99431.81;6221769;28;19925;-71
2023/01/22 13:13:47;;;;;;;;;;;;;;;-0.42;34.20;99443.81;6221494;28;19925;-70
2023/01/22 13:16:53;;;;;;;;;;;;;;;-0.72;34.38;99429.41;6221056;28;19932;-70
2023/01/22 13:19:56;;;;;;;;;;;;;;;-0.96;34.50;99430.63;6220588;28;20039;-70
2023/01/22 13:23:00;;;;;;;;;;;;;;;-0.92;35.91;99437.59;6221541;28;20414;-71
2023/01/22 13:26:04;;;;;;;;;;;;;;;-0.91;35.22;99429.03;6220806;28;20406;-71
2023/01/22 13:29:27;;;;;;;;;;;;;;;-1.16;35.88;99426.69;6220969;28;20403;-70
2023/01/22 13:32:31;;;;;;;;;;;;;;;-1.43;36.28;99425.22;6221524;28;19926;-70
2023/01/22 13:35:34;;;;;;;;;;;;;;;-1.55;36.20;99424.09;6220895;28;19937;-70
2023/01/22 13:38:36;;;;;;;;;;;;;;;-1.76;36.40;99416.66;6220944;28;19960;-72
2023/01/22 13:41:38;;;;;;;;;;;;;;;-1.95;37.08;99421.38;6221061;28;19925;-70
2023/01/22 13:44:40;;;;;;;;;;;;;;;-1.97;37.08;99410.13;6202972;28;20079;-70
2023/01/22 13:47:46;;;;;;;;;;;;;;;-1.95;36.79;99410.16;6221274;28;19925;-71
2023/01/22 13:51:06;;;;;;;;;;;;;;;-2.04;37.95;99400.47;6220746;28;19936;-70
2023/01/22 13:54:15;;;;;;;;;;;;;;;-2.12;36.76;99413.19;6220308;28;19925;-70
2023/01/22 13:57:18;;;;;;;;;;;;;;;-2.13;36.83;99416.59;6220747;28;19932;-71
2023/01/22 14:00:24;;;;;;;;;;;;;;;-1.97;37.98;99412.72;6220597;28;19988;-70
2023/01/22 14:03:29;;;;;;;;;;;;;;;-2.04;38.76;99416.84;6219532;28;20453;-71
2023/01/22 14:06:46;;;;;;;;;;;;;;;-2.20;38.75;99412.13;6220800;28;20020;-70
2023/01/22 14:09:50;;;;;;;;;;;;;;;-2.38;39.40;99415.06;6220295;28;19926;-70
2023/01/22 14:12:59;;;;;;;;;;;;;;;-2.31;39.17;99406.66;6219768;28;19925;-70
2023/01/22 14:16:05;;;;;;;;;;;;;;;-2.28;39.69;99405.88;6220155;28;19974;-70
2023/01/22 14:19:09;;;;;;;;;;;;;;;-1.78;39.28;99398.56;6221115;28;19926;-71
2023/01/22 14:22:12;;;;;;;;;;;;;;;-2.04;39.37;99387.56;6220621;28;19925;-70
2023/01/22 14:25:13;;;;;;;;;;;;;;;-2.01;39.61;99379.03;6219873;28;19926;-71
2023/01/22 14:28:17;;;;;;;;;;;;;;;-1.67;39.45;99375.59;6220594;28;19988;-70
2023/01/22 14:31:18;;;;;;;;;;;;;;;-1.65;38.91;99371.34;6220121;28;19925;-70
2023/01/22 14:34:22;;;;;;;;;;;;;;;-1.82;38.96;99371.78;6220378;28;19933;-71
2023/01/22 14:37:26;;;;;;;;;;;;;;;-2.00;39.09;99375.66;6219947;28;19925;-72
2023/01/22 14:40:28;;;;;;;;;;;;;;;-1.99;39.28;99377.38;6219885;28;20391;-70
2023/01/22 14:43:30;;;;;;;;;;;;;;;-1.92;39.21;99364.69;6220166;28;19925;-71
2023/01/22 14:46:31;;;;;;;;;;;;;;;-1.89;39.57;99353.56;6219495;28;20032;-72
2023/01/22 14:49:34;;;;;;;;;;;;;;;-1.92;39.29;99359.53;6220154;28;19973;-72
2023/01/22 14:52:40;;;;;;;;;;;;;;;-2.07;39.75;99359.13;6220333;28;19925;-71
2023/01/22 14:55:44;;;;;;;;;;;;;;;-2.24;40.05;99365.56;6219844;28;19925;-70
2023/01/22 14:58:48;;;;;;;;;;;;;;;-2.55;40.50;99357.00;6219422;28;19925;-70
2023/01/22 15:01:51;;;;;;;;;;;;;;;-2.62;41.18;99353.41;6220014;28;20306;-70
2023/01/22 15:04:54;;;;;;;;;;;;;;;-2.63;41.50;99356.81;6220126;28;19921;-70
2023/01/22 15:07:59;;;;;;;;;;;;;;;-2.64;40.95;99343.88;6223905;28;19926;-70
2023/01/22 15:11:04;;;;;;;;;;;;;;;-2.53;41.07;99347.63;6224672;28;19927;-71
2023/01/22 15:14:11;;;;;;;;;;;;;;;-2.68;40.66;99348.09;6223859;28;20306;-71
2023/01/22 15:17:12;;;;;;;;;;;;;;;-2.74;40.56;99353.94;6224055;28;19925;-71
2023/01/22 15:20:13;;;;;;;;;;;;;;;-2.65;40.67;99352.44;6223627;28;19925;-71
2023/01/22 15:23:15;;;;;;;;;;;;;;;-2.42;40.55;99348.78;6223628;28;19933;-71
2023/01/22 15:26:21;;;;;;;;;;;;;;;-2.51;40.61;99333.06;6224190;28;20310;-71
2023/01/22 15:29:27;;;;;;;;;;;;;;;-2.40;40.90;99333.38;6224100;28;19925;-70
2023/01/22 15:32:31;;;;;;;;;;;;;;;-2.35;40.98;99330.06;6223937;28;20311;-70
2023/01/22 15:35:32;;;;;;;;;;;;;;;-2.57;41.08;99325.19;6223213;28;19926;-70
2023/01/22 15:38:33;;;;;;;;;;;;;;;-2.41;41.05;99314.41;6223687;28;19932;-71
2023/01/22 15:41:35;;;;;;;;;;;;;;;-2.36;40.73;99330.03;6222975;28;20422;-70
2023/01/22 15:44:39;;;;;;;;;;;;;;;-2.21;40.20;99316.63;6222965;28;20406;-71
2023/01/22 15:47:45;;;;;;;;;;;;;;;-2.39;39.64;99322.19;6223722;28;19926;-70
2023/01/22 15:50:52;;;;;;;;;;;;;;;-2.31;39.45;99324.16;6206347;28;19921;-70
2023/01/22 15:53:59;;;;;;;;;;;;;;;-2.08;38.94;99321.28;6223552;28;19925;-70
2023/01/22 15:57:05;;;;;;;;;;;;;;;-2.19;39.18;99314.97;6223282;28;19949;-71
2023/01/22 16:00:06;;;;;;;;;;;;;;;-1.91;38.13;99307.06;6223191;28;19926;-71
2023/01/22 16:03:10;;;;;;;;;;;;;;;-1.91;38.03;99312.22;6222865;28;19926;-70
2023/01/22 16:06:16;;;;;;;;;;;;;;;-1.84;37.78;99306.41;6222904;28;19925;-71
2023/01/22 16:09:22;;;;;;;;;;;;;;;-1.77;37.60;99302.22;6223242;28;19925;-71
2023/01/22 16:12:25;;;;;;;;;;;;;;;-1.89;37.67;99305.41;6222872;28;19925;-72
2023/01/22 16:15:29;;;;;;;;;;;;;;;-2.01;37.83;99311.97;6222633;28;20354;-72
2023/01/22 16:18:54;;;;;;;;;;;;;;;-2.08;38.01;99305.78;6221976;28;20040;-72